Huvudsida
METAR-TAF:

METAR-TAF

Flygplatser :

Lecce, Italien

latitud: 40-14N, longitud: 018-09E, höjd: 48 m

Aktuellt väderrapport

Denna rapport gjordes för 19 minuter sedan, klockan 12:55 UTC
Vind 16 kt från nord/nordost
Temperatur 11°C
Fuktighet 47%
Tryck 1027 hPa
Sikt 10 km eller mer
Få moln på en höjd av 3000 ft

METAR: LIBN 221255Z 02016KT 9999 FEW030 11/M00 Q1027 RMK FEW VIS MIN 9999 WIND THR14 01014KT WIND THR32 36016KT BLU

Tid: 14:14 (13:14 UTC)

Väderprognos

Denna rapport gjordes för 23 timmar och 14 minuter sedan, klockan 14:00 UTC
Prognos gäller från 21 kl. 15 UTC till 21 kl. 24 UTC
Vind 10 kt från nord/nordväst
Sikt 10 km eller mer
Inga moln under 1 500 m eller inga cumulonimbus

TAF: LIBN 211400Z 2115/2124 34010KT CAVOK

Aktuella väderrapporter och prognoser från 4000 flygplatser (METAR- och TAF-rapporter).

De tillgängliga stationerna syns som gula och röda prickar på kartan.

För musen över prickarna för att se namnen på stationerna.

Klicka sedan för att få väderrapporter och prognoser.

För att ändra kartan: Klicka på de gröna knapparna med ett svart kors på för att zooma in; den gröna knappen med ett streck på för att zooma ut; eller på de gröna pilarna för angränsande kartor.


METAR-TAF: